Terminal Aerodrome Forecast
Issued by NWS Goodland, KS

Home | Current Version | Previous Version | Text Only | Print | Product List | Glossary On
Versions: 1 2 3 4 5 6 7 8 9 10 11 12
274
FTUS43 KGLD 261120
TAFGLD
TAF
KGLD 261120Z 2612/2712 30015KT P6SM -SHRA BKN070
     FM261400 03011KT P6SM SCT050 BKN120
     FM270000 14012KT P6SM VCTS BKN050CB=

USA.gov is the U.S. government's official web portal to all federal, state and local government web resources and services.